Time;durP1;ratioP1;P1;durP2;ratioP2;P2;SDS_P1;SDS_P2;PMS_P1;PMS_P2;Temp;Humidity;BMP_temperature;BMP_pressure;BME280_temperature;BME280_humidity;BME280_pressure;Samples;Min_cycle;Max_cycle;Signal;HPM_P1;HPM_P2
2021/04/05 00:00:40;;;;;;;14.15;6.47;;;6.50;51.50;;;;;;4991643;28;20058;-86
2021/04/05 00:03:07;;;;;;;12.57;6.28;;;6.40;51.50;;;;;;4974563;28;20545;-85
2021/04/05 00:05:36;;;;;;;12.80;6.57;;;6.40;51.60;;;;;;4993694;28;20461;-85
2021/04/05 00:08:02;;;;;;;10.85;6.07;;;6.40;51.70;;;;;;4993388;28;20030;-85
2021/04/05 00:10:52;;;;;;;13.75;6.57;;;6.40;51.50;;;;;;4995639;28;20022;-87
2021/04/05 00:13:22;;;;;;;11.80;5.88;;;6.30;51.60;;;;;;4994050;28;20026;-87
2021/04/05 00:15:47;;;;;;;13.18;5.93;;;6.30;51.80;;;;;;4977640;28;20027;-87
2021/04/05 00:18:17;;;;;;;14.43;6.20;;;6.20;51.70;;;;;;4980333;28;20107;-85
2021/04/05 00:20:56;;;;;;;14.82;6.00;;;6.20;52.00;;;;;;5008483;28;20027;-86
2021/04/05 00:23:22;;;;;;;13.32;6.15;;;6.20;52.20;;;;;;4995208;28;20030;-87
2021/04/05 00:25:48;;;;;;;10.52;6.18;;;6.10;52.00;;;;;;4998489;28;20113;-87
2021/04/05 00:28:13;;;;;;;12.55;5.90;;;6.10;52.10;;;;;;4994884;28;20077;-85
2021/04/05 00:30:41;;;;;;;11.40;5.95;;;6.10;52.10;;;;;;4984825;28;20027;-85
2021/04/05 00:33:09;;;;;;;11.18;6.15;;;6.10;52.20;;;;;;4991859;28;20027;-87
2021/04/05 00:35:37;;;;;;;14.95;6.50;;;6.10;52.30;;;;;;4987129;28;20102;-86
2021/04/05 00:38:09;;;;;;;8.48;6.25;;;6.00;52.30;;;;;;4997112;28;20022;-85
2021/04/05 00:40:39;;;;;;;14.68;6.43;;;6.10;52.50;;;;;;4989373;28;20038;-85
2021/04/05 00:43:07;;;;;;;12.43;5.95;;;6.10;52.50;;;;;;4998020;28;20507;-85
2021/04/05 00:45:34;;;;;;;13.95;6.00;;;6.10;52.40;;;;;;4997011;28;20103;-86
2021/04/05 00:48:00;;;;;;;12.55;5.55;;;6.00;52.40;;;;;;4982937;28;20031;-85
2021/04/05 00:50:49;;;;;;;12.88;6.18;;;6.00;52.40;;;;;;4981792;28;20053;-85
2021/04/05 00:53:18;;;;;;;18.10;6.50;;;6.00;52.50;;;;;;4998012;28;20026;-86
2021/04/05 00:55:45;;;;;;;14.55;6.40;;;5.90;52.40;;;;;;5002586;28;20027;-86
2021/04/05 00:58:11;;;;;;;10.05;5.97;;;5.90;52.50;;;;;;4997622;28;20084;-84
2021/04/05 01:00:37;;;;;;;13.25;6.75;;;5.80;52.60;;;;;;4997627;28;20041;-86
2021/04/05 01:03:04;;;;;;;13.70;6.45;;;5.90;52.80;;;;;;4999225;28;20117;-86
2021/04/05 01:05:30;;;;;;;15.73;5.97;;;5.90;52.80;;;;;;4997828;28;20034;-85
2021/04/05 01:07:56;;;;;;;13.23;6.50;;;5.90;52.70;;;;;;5023687;23;20384;-89
2021/04/05 01:10:23;;;;;;;12.73;5.65;;;5.90;52.60;;;;;;4995698;28;20387;-89
2021/04/05 01:12:48;;;;;;;18.42;6.68;;;5.90;52.80;;;;;;5004072;28;20088;-89
2021/04/05 01:15:15;;;;;;;14.63;6.07;;;5.80;52.70;;;;;;4997235;28;20034;-89
2021/04/05 01:17:41;;;;;;;12.25;5.70;;;5.80;52.80;;;;;;5013965;28;20030;-89
2021/04/05 01:20:14;;;;;;;13.25;6.13;;;5.80;52.90;;;;;;5005199;28;20149;-89
2021/04/05 01:22:42;;;;;;;15.00;6.15;;;5.80;53.20;;;;;;5011477;28;20031;-90
2021/04/05 01:25:13;;;;;;;11.95;6.03;;;5.80;53.20;;;;;;5010088;28;20031;-90
2021/04/05 01:27:40;;;;;;;15.17;6.30;;;5.80;53.20;;;;;;4996350;28;20018;-89
2021/04/05 01:30:28;;;;;;;11.30;5.68;;;5.80;53.10;;;;;;5010583;28;20023;-89
2021/04/05 01:33:03;;;;;;;11.65;5.10;;;5.80;53.20;;;;;;5006008;28;20038;-90
2021/04/05 01:35:31;;;;;;;15.45;6.55;;;5.70;53.10;;;;;;4994743;28;20033;-90
2021/04/05 01:37:57;;;;;;;9.55;4.97;;;5.70;53.20;;;;;;4990364;28;20122;-90
2021/04/05 01:40:22;;;;;;;11.35;5.95;;;5.70;53.20;;;;;;5018893;28;20109;-90
2021/04/05 01:42:49;;;;;;;12.68;6.10;;;5.70;53.30;;;;;;4994691;28;20065;-89
2021/04/05 01:45:18;;;;;;;11.23;5.63;;;5.70;53.30;;;;;;4994489;28;20080;-89
2021/04/05 01:47:44;;;;;;;10.85;5.68;;;5.70;53.50;;;;;;4994221;28;20022;-89
2021/04/05 01:50:11;;;;;;;14.10;5.75;;;5.60;53.40;;;;;;5009629;28;20041;-89
2021/04/05 01:52:41;;;;;;;12.77;5.18;;;5.70;53.40;;;;;;4991322;28;20030;-89
2021/04/05 01:55:08;;;;;;;11.95;6.18;;;5.60;53.50;;;;;;5003240;28;20153;-89
2021/04/05 01:57:35;;;;;;;11.10;5.95;;;5.70;53.50;;;;;;4994005;28;20069;-89
2021/04/05 02:00:01;;;;;;;9.70;5.60;;;5.60;53.40;;;;;;5008893;28;20076;-90
2021/04/05 02:02:27;;;;;;;12.82;5.95;;;5.60;53.30;;;;;;4999250;28;20113;-89
2021/04/05 02:04:55;;;;;;;12.68;6.30;;;5.60;53.50;;;;;;4980103;28;20027;-89
2021/04/05 02:07:21;;;;;;;12.95;6.00;;;5.50;53.50;;;;;;5010050;28;20022;-89
2021/04/05 02:09:47;;;;;;;10.52;5.90;;;5.50;53.50;;;;;;5002658;28;20030;-89
2021/04/05 02:12:13;;;;;;;10.23;5.13;;;5.50;53.50;;;;;;5014032;28;20032;-89
2021/04/05 02:14:39;;;;;;;14.85;6.28;;;5.50;53.60;;;;;;5029954;28;20541;-90
2021/04/05 02:17:04;;;;;;;12.25;6.05;;;5.50;53.60;;;;;;5030437;28;20026;-89
2021/04/05 02:19:30;;;;;;;11.50;6.47;;;5.50;53.60;;;;;;5018690;28;20113;-89
2021/04/05 02:21:56;;;;;;;13.25;6.50;;;5.50;53.50;;;;;;5011084;28;20023;-89
2021/04/05 02:24:21;;;;;;;10.38;5.65;;;5.50;53.70;;;;;;5009517;28;20030;-89
2021/04/05 02:26:47;;;;;;;13.10;5.70;;;5.50;53.70;;;;;;4988389;28;20038;-88
2021/04/05 02:29:18;;;;;;;11.38;5.60;;;5.40;53.60;;;;;;5001484;28;20416;-89
2021/04/05 02:31:44;;;;;;;10.10;5.88;;;5.40;54.00;;;;;;5000461;28;20046;-89
2021/04/05 02:34:14;;;;;;;10.85;5.22;;;5.30;53.80;;;;;;4989440;28;20034;-89
2021/04/05 02:36:40;;;;;;;12.75;5.88;;;5.30;54.00;;;;;;4978704;28;20469;-89
2021/04/05 02:39:11;;;;;;;12.80;5.82;;;5.30;54.00;;;;;;5010422;28;20027;-90
2021/04/05 02:41:41;;;;;;;11.43;6.25;;;5.20;54.10;;;;;;5010349;28;20466;-89
2021/04/05 02:44:07;;;;;;;12.10;6.18;;;5.20;54.10;;;;;;4989289;28;20108;-89
2021/04/05 02:46:36;;;;;;;11.05;5.28;;;5.30;54.20;;;;;;4984678;28;20094;-89
2021/04/05 02:49:14;;;;;;;10.40;5.80;;;5.30;54.30;;;;;;4976329;28;20065;-89
2021/04/05 02:51:51;;;;;;;9.82;5.50;;;5.30;54.30;;;;;;4987974;28;20030;-88
2021/04/05 02:54:21;;;;;;;12.40;5.82;;;5.30;54.30;;;;;;4991502;28;20481;-89
2021/04/05 02:56:48;;;;;;;10.77;5.38;;;5.30;54.20;;;;;;5004838;28;20035;-88
2021/04/05 02:59:20;;;;;;;11.35;5.20;;;5.30;54.00;;;;;;4979634;28;20031;-89
2021/04/05 03:01:47;;;;;;;11.05;5.70;;;5.30;54.20;;;;;;4992167;28;20117;-89
2021/04/05 03:04:12;;;;;;;12.65;5.78;;;5.20;54.20;;;;;;5008175;28;20029;-89
2021/04/05 03:06:38;;;;;;;12.25;5.85;;;5.30;54.30;;;;;;5007967;28;20023;-89
2021/04/05 03:09:06;;;;;;;13.38;6.18;;;5.30;54.30;;;;;;4999219;28;20037;-89
2021/04/05 03:11:33;;;;;;;11.27;5.55;;;5.20;54.30;;;;;;5012942;28;20022;-89
2021/04/05 03:14:00;;;;;;;11.65;5.97;;;5.20;54.20;;;;;;4994696;28;20044;-89
2021/04/05 03:16:27;;;;;;;11.77;5.90;;;5.20;54.40;;;;;;5006895;28;20030;-89
2021/04/05 03:18:56;;;;;;;10.27;5.53;;;5.20;54.50;;;;;;4999856;28;20030;-89
2021/04/05 03:21:23;;;;;;;12.23;6.00;;;5.20;54.50;;;;;;4985397;28;20030;-88
2021/04/05 03:23:50;;;;;;;10.68;5.72;;;5.20;54.50;;;;;;5007010;28;20058;-88
2021/04/05 03:26:16;;;;;;;12.13;5.50;;;5.20;54.40;;;;;;4980555;28;20113;-89
2021/04/05 03:28:41;;;;;;;10.57;5.70;;;5.20;54.50;;;;;;4981288;28;20109;-89
2021/04/05 03:31:19;;;;;;;13.27;5.50;;;5.20;54.50;;;;;;4992133;28;20141;-89
2021/04/05 03:34:00;;;;;;;17.13;6.03;;;5.20;54.70;;;;;;4989391;28;20038;-88
2021/04/05 03:36:38;;;;;;;14.23;5.90;;;5.20;54.60;;;;;;4987293;28;20036;-89
2021/04/05 03:39:05;;;;;;;15.15;6.10;;;5.30;54.70;;;;;;5000446;28;20033;-89
2021/04/05 03:41:33;;;;;;;17.88;6.25;;;5.30;55.90;;;;;;5001965;28;20049;-89
2021/04/05 03:44:13;;;;;;;12.10;6.00;;;5.20;55.70;;;;;;4991652;28;20039;-89
2021/04/05 03:46:43;;;;;;;15.60;6.18;;;5.20;55.70;;;;;;5006321;28;20031;-89
2021/04/05 03:49:30;;;;;;;13.52;5.55;;;5.30;56.30;;;;;;4982950;28;20082;-89
2021/04/05 03:52:12;;;;;;;14.40;5.85;;;5.40;56.50;;;;;;4985748;28;20061;-89
2021/04/05 03:54:54;;;;;;;14.70;5.40;;;5.40;56.80;;;;;;4995813;28;20018;-89
2021/04/05 03:57:31;;;;;;;14.32;5.85;;;5.50;56.50;;;;;;5003101;28;20078;-89
2021/04/05 04:00:00;;;;;;;14.10;5.65;;;5.60;56.60;;;;;;4980196;28;20026;-90
2021/04/05 04:02:36;;;;;;;10.90;4.97;;;5.70;56.40;;;;;;5008012;28;20030;-89
2021/04/05 04:05:27;;;;;;;12.43;6.18;;;5.80;56.50;;;;;;4983316;28;20034;-89
2021/04/05 04:10:30;;;;;;;12.52;5.78;;;5.90;56.60;;;;;;4999594;28;20444;-89
2021/04/05 04:12:57;;;;;;;11.48;5.45;;;6.00;56.90;;;;;;5011873;28;20388;-90
2021/04/05 04:15:24;;;;;;;17.55;5.85;;;6.00;56.80;;;;;;5011048;28;20034;-89
2021/04/05 04:17:51;;;;;;;12.70;5.30;;;6.10;57.00;;;;;;5004730;28;20370;-90
2021/04/05 04:20:18;;;;;;;13.70;5.40;;;6.10;56.90;;;;;;5006883;28;20401;-89
2021/04/05 04:22:45;;;;;;;12.98;5.60;;;6.10;57.20;;;;;;5023788;28;20030;-89
2021/04/05 04:25:11;;;;;;;14.82;5.57;;;6.10;57.00;;;;;;5017434;28;20057;-89
2021/04/05 04:27:38;;;;;;;14.93;5.80;;;6.20;57.30;;;;;;5009775;28;20061;-89
2021/04/05 04:30:05;;;;;;;10.13;4.80;;;6.20;57.10;;;;;;4998468;28;20031;-88
2021/04/05 04:32:31;;;;;;;15.13;5.43;;;6.30;57.50;;;;;;5009937;28;20105;-89
2021/04/05 04:34:57;;;;;;;12.43;5.43;;;6.40;57.30;;;;;;5003129;28;20072;-88
2021/04/05 04:37:24;;;;;;;17.95;6.03;;;6.40;57.40;;;;;;5000836;28;20022;-89
2021/04/05 04:39:50;;;;;;;13.95;6.00;;;6.40;57.40;;;;;;5013138;28;20038;-90
2021/04/05 04:42:16;;;;;;;15.40;5.60;;;6.50;57.40;;;;;;4999497;28;20503;-89
2021/04/05 04:44:42;;;;;;;14.93;5.53;;;6.50;57.20;;;;;;5009888;28;20019;-89
2021/04/05 04:47:08;;;;;;;14.05;5.65;;;6.60;57.00;;;;;;5010014;28;20018;-90
2021/04/05 04:49:34;;;;;;;17.35;5.80;;;6.60;57.10;;;;;;5007761;28;20041;-89
2021/04/05 04:52:00;;;;;;;11.88;5.45;;;6.60;56.90;;;;;;4991012;28;20433;-90
2021/04/05 04:54:25;;;;;;;12.15;5.65;;;6.60;56.90;;;;;;4997419;28;20034;-89
2021/04/05 04:56:51;;;;;;;14.48;5.60;;;6.70;56.90;;;;;;4990244;28;20022;-90
2021/04/05 04:59:18;;;;;;;13.25;5.60;;;6.70;56.90;;;;;;5005203;28;20027;-89
2021/04/05 05:01:45;;;;;;;14.70;4.97;;;6.70;56.80;;;;;;4990961;28;20034;-89
2021/04/05 05:04:20;;;;;;;13.32;5.25;;;6.70;56.70;;;;;;4983234;28;20026;-90
2021/04/05 05:06:47;;;;;;;12.30;5.32;;;6.70;56.70;;;;;;4984901;28;20519;-89
2021/04/05 05:09:13;;;;;;;11.48;5.20;;;6.70;56.50;;;;;;4992438;28;20038;-89
2021/04/05 05:11:40;;;;;;;14.23;5.53;;;6.70;56.40;;;;;;4988400;28;20027;-89
2021/04/05 05:14:07;;;;;;;16.63;5.53;;;6.70;56.30;;;;;;4985609;28;20065;-89
2021/04/05 05:16:33;;;;;;;10.38;5.43;;;6.70;56.40;;;;;;5002533;28;20053;-90
2021/04/05 05:18:59;;;;;;;10.00;4.88;;;6.70;56.30;;;;;;4993859;28;20117;-90
2021/04/05 05:21:26;;;;;;;16.65;5.30;;;6.60;56.20;;;;;;5015630;28;20036;-89
2021/04/05 05:23:56;;;;;;;13.27;5.07;;;6.60;56.30;;;;;;5015692;28;20045;-88
2021/04/05 05:26:23;;;;;;;9.15;5.18;;;6.60;56.20;;;;;;5001048;28;20084;-88
2021/04/05 05:28:53;;;;;;;14.25;6.28;;;6.70;56.40;;;;;;5018003;28;20124;-88
2021/04/05 05:31:19;;;;;;;14.05;5.28;;;6.60;56.20;;;;;;4998348;28;20169;-89
2021/04/05 05:33:45;;;;;;;12.02;5.00;;;6.70;56.40;;;;;;5007678;28;20029;-89
2021/04/05 05:36:11;;;;;;;9.07;4.93;;;6.70;56.40;;;;;;4998021;28;20066;-89
2021/04/05 05:38:36;;;;;;;9.52;4.57;;;6.70;56.90;;;;;;4995572;28;20443;-89
2021/04/05 05:41:27;;;;;;;9.27;4.78;;;6.60;56.20;;;;;;5025701;28;20069;-89
2021/04/05 05:44:04;;;;;;;11.27;5.25;;;6.60;56.20;;;;;;5011001;28;20045;-89
2021/04/05 05:46:36;;;;;;;16.05;5.20;;;6.60;56.50;;;;;;4993119;28;20449;-89
2021/04/05 05:49:18;;;;;;;;;;;6.60;56.30;;;;;;4977022;28;20486;-89
2021/04/05 05:51:56;;;;;;;14.60;4.75;;;6.60;55.80;;;;;;4986190;28;19914;-89
2021/04/05 05:55:01;;;;;;;17.90;5.35;;;6.70;56.70;;;;;;4993303;28;20073;-89
2021/04/05 05:57:47;;;;;;;15.65;6.00;;;6.70;56.10;;;;;;4986334;28;20066;-89
2021/04/05 06:00:26;;;;;;;17.52;6.15;;;6.80;56.10;;;;;;4990165;28;20405;-88
2021/04/05 06:03:37;;;;;;;14.50;5.25;;;6.80;56.00;;;;;;5008737;28;20029;-89
2021/04/05 06:06:32;;;;;;;12.77;4.53;;;6.80;56.00;;;;;;5004172;28;20121;-89
2021/04/05 06:09:04;;;;;;;11.50;4.47;;;6.80;56.00;;;;;;4996608;28;20045;-89
2021/04/05 06:12:02;;;;;;;12.57;4.82;;;6.80;55.90;;;;;;4992807;28;20076;-88
2021/04/05 06:14:48;;;;;;;18.52;5.10;;;6.80;56.00;;;;;;4996478;28;20029;-88
2021/04/05 06:17:14;;;;;;;12.68;4.72;;;6.80;55.90;;;;;;4984361;28;20031;-89
2021/04/05 06:19:51;;;;;;;13.82;4.63;;;6.90;55.90;;;;;;4993379;28;20027;-89
2021/04/05 06:23:03;;;;;;;14.82;4.80;;;6.90;55.90;;;;;;5000290;28;20459;-89
2021/04/05 06:25:50;;;;;;;12.60;5.00;;;6.90;55.80;;;;;;4978075;28;20030;-89
2021/04/05 06:28:31;;;;;;;13.88;5.18;;;7.00;55.80;;;;;;5000626;28;20023;-89
2021/04/05 06:31:32;;;;;;;12.02;4.85;;;7.00;55.70;;;;;;4988056;28;20023;-89
2021/04/05 06:34:06;;;;;;;11.45;5.00;;;7.10;55.90;;;;;;4978316;28;20026;-89
2021/04/05 06:36:53;;;;;;;11.00;4.72;;;7.10;56.00;;;;;;4988039;28;20480;-89
2021/04/05 06:39:24;;;;;;;13.02;5.13;;;7.10;56.20;;;;;;5000821;28;20038;-89
2021/04/05 06:41:59;;;;;;;11.60;5.13;;;7.10;56.30;;;;;;4993554;28;20027;-88
2021/04/05 06:44:59;;;;;;;11.63;4.90;;;7.10;56.60;;;;;;4996781;28;20041;-88
2021/04/05 06:47:43;;;;;;;22.67;5.28;;;7.10;56.80;;;;;;5009206;28;20029;-88
2021/04/05 06:50:36;;;;;;;11.63;4.90;;;7.20;57.00;;;;;;5009650;28;20033;-89
2021/04/05 06:53:47;;;;;;;12.90;4.57;;;7.30;56.90;;;;;;5007314;28;20125;-89
2021/04/05 06:56:24;;;;;;;13.52;4.88;;;7.40;56.80;;;;;;5008707;28;20463;-88
2021/04/05 06:59:03;;;;;;;10.85;4.43;;;7.40;56.90;;;;;;4983247;28;20113;-90
2021/04/05 07:01:58;;;;;;;10.18;4.82;;;7.50;56.90;;;;;;5009162;28;20440;-89
2021/04/05 07:05:02;;;;;;;12.50;4.35;;;7.50;56.80;;;;;;4990036;28;20115;-89
2021/04/05 07:07:45;;;;;;;10.57;4.88;;;7.50;56.60;;;;;;5007606;28;20034;-89
2021/04/05 07:10:20;;;;;;;16.98;4.82;;;7.60;56.60;;;;;;5013579;28;20077;-89
2021/04/05 07:13:01;;;;;;;13.77;4.70;;;7.60;56.50;;;;;;5005662;28;20046;-89
2021/04/05 07:15:42;;;;;;;12.73;5.05;;;7.60;56.50;;;;;;4999895;28;20506;-89
2021/04/05 07:18:34;;;;;;;13.52;5.15;;;7.70;56.40;;;;;;4990941;28;20027;-89
2021/04/05 07:21:08;;;;;;;9.23;4.20;;;7.70;56.90;;;;;;4986275;28;20034;-89
2021/04/05 07:23:47;;;;;;;14.27;5.40;;;7.70;56.30;;;;;;4976699;28;20533;-88
2021/04/05 07:26:27;;;;;;;11.50;4.75;;;7.80;56.30;;;;;;4988068;28;20117;-89
2021/04/05 07:29:33;;;;;;;11.07;4.80;;;7.90;56.20;;;;;;5006158;28;20073;-90
2021/04/05 07:32:19;;;;;;;12.70;5.10;;;8.00;56.20;;;;;;4983153;28;20086;-88
2021/04/05 07:34:50;;;;;;;9.38;4.53;;;8.10;56.10;;;;;;4987629;28;20027;-91
2021/04/05 07:37:53;;;;;;;8.68;4.53;;;8.10;56.10;;;;;;4991021;28;20026;-90
2021/04/05 07:40:44;;;;;;;12.45;5.18;;;8.20;56.00;;;;;;5006146;28;20030;-89
2021/04/05 07:43:47;;;;;;;12.35;5.25;;;8.30;56.00;;;;;;4982141;28;20577;-89
2021/04/05 07:46:31;;;;;;;;;;;8.40;56.00;;;;;;4995084;28;20061;-89
2021/04/05 07:49:20;;;;;;;12.40;6.47;;;8.50;55.60;;;;;;5002979;28;19909;-89
2021/04/05 07:52:02;;;;;;;15.52;6.47;;;8.60;55.70;;;;;;4989820;28;20026;-89
2021/04/05 07:54:32;;;;;;;16.42;5.85;;;8.70;55.70;;;;;;4983099;28;20077;-89
2021/04/05 07:57:22;;;;;;;20.60;7.60;;;8.70;55.60;;;;;;4997252;28;20380;-89
2021/04/05 08:00:12;;;;;;;17.83;7.32;;;8.90;55.70;;;;;;4991742;28;20027;-89
2021/04/05 08:03:19;;;;;;;16.17;7.65;;;9.00;55.70;;;;;;4988541;28;20101;-89
2021/04/05 08:06:03;;;;;;;20.85;8.65;;;9.10;55.50;;;;;;5005481;28;20034;-89
2021/04/05 08:08:44;;;;;;;25.98;9.75;;;9.20;55.30;;;;;;4982848;28;20026;-89
2021/04/05 08:11:32;;;;;;;26.85;8.93;;;9.30;55.20;;;;;;5000721;28;20022;-89
2021/04/05 08:14:28;;;;;;;20.92;8.13;;;9.40;55.10;;;;;;4998560;28;20037;-89
2021/04/05 08:17:18;;;;;;;22.27;8.75;;;9.40;54.80;;;;;;4993757;28;20077;-89
2021/04/05 08:19:45;;;;;;;21.67;8.57;;;9.50;54.60;;;;;;5007734;28;20029;-89
2021/04/05 08:22:27;;;;;;;16.33;8.48;;;9.60;54.50;;;;;;5007952;28;20034;-89
2021/04/05 08:25:43;;;;;;;20.92;9.38;;;9.60;54.50;;;;;;5006457;28;20393;-89
2021/04/05 08:28:26;;;;;;;16.73;7.78;;;9.70;54.50;;;;;;4991160;28;20022;-90
2021/04/05 08:31:01;;;;;;;18.60;7.78;;;9.70;54.40;;;;;;4972384;28;20686;-89
2021/04/05 08:33:59;;;;;;;22.52;9.45;;;9.80;54.40;;;;;;5006811;28;20034;-91
2021/04/05 08:36:43;;;;;;;21.20;9.52;;;9.90;54.30;;;;;;4994685;28;20030;-89
2021/04/05 08:39:20;;;;;;;25.05;8.20;;;9.90;54.20;;;;;;4993122;28;20189;-89
2021/04/05 08:42:01;;;;;;;20.60;7.97;;;10.00;53.80;;;;;;4975034;28;20034;-89
2021/04/05 08:44:34;;;;;;;19.92;8.13;;;10.00;53.80;;;;;;4990521;28;20033;-90
2021/04/05 08:47:01;;;;;;;21.83;9.98;;;10.00;53.50;;;;;;4983686;28;20031;-89
2021/04/05 08:49:29;;;;;;;22.45;10.10;;;10.10;53.40;;;;;;5013881;28;20034;-89
2021/04/05 08:52:00;;;;;;;21.05;8.38;;;10.20;52.70;;;;;;4984591;28;20316;-89
2021/04/05 08:54:28;;;;;;;29.63;8.52;;;10.20;52.60;;;;;;4995433;28;20027;-89
2021/04/05 08:57:06;;;;;;;18.73;8.20;;;10.10;52.10;;;;;;4982922;28;20057;-86
2021/04/05 08:59:40;;;;;;;17.75;8.20;;;10.20;52.30;;;;;;5007413;28;20026;-88
2021/04/05 09:02:42;;;;;;;16.02;7.47;;;10.20;51.00;;;;;;4994570;28;20392;-90
2021/04/05 09:05:15;;;;;;;19.50;6.93;;;10.20;51.50;;;;;;4972334;28;20366;-88
2021/04/05 09:07:58;;;;;;;24.30;7.65;;;10.30;51.80;;;;;;5014465;28;20278;-92
2021/04/05 09:10:39;;;;;;;19.58;7.57;;;10.40;50.40;;;;;;5016236;28;20109;-91
2021/04/05 09:13:35;;;;;;;21.70;9.50;;;10.40;50.30;;;;;;4980047;28;20031;-90
2021/04/05 09:16:01;;;;;;;18.10;7.82;;;10.40;49.70;;;;;;4992994;28;20034;-91
2021/04/05 09:19:08;;;;;;;19.77;8.55;;;10.30;49.90;;;;;;4999677;28;20049;-90
2021/04/05 09:21:50;;;;;;;22.88;8.77;;;10.30;50.20;;;;;;4996719;28;20558;-90
2021/04/05 09:24:37;;;;;;;20.15;8.80;;;10.30;50.00;;;;;;4990324;28;20038;-91
2021/04/05 09:27:41;;;;;;;21.55;9.20;;;10.30;50.00;;;;;;4997321;28;20031;-89
2021/04/05 09:30:39;;;;;;;20.55;7.78;;;10.40;49.90;;;;;;5003997;28;20461;-91
2021/04/05 09:33:08;;;;;;;19.75;8.88;;;10.40;50.10;;;;;;4979540;28;20524;-91
2021/04/05 09:35:49;;;;;;;21.58;9.10;;;10.50;49.60;;;;;;5009357;28;20453;-90
2021/04/05 09:38:14;;;;;;;21.17;8.18;;;10.40;49.30;;;;;;5039737;23;20130;-87
2021/04/05 09:41:13;;;;;;;16.90;8.20;;;10.40;48.80;;;;;;4997264;28;20461;-88
2021/04/05 09:44:10;;;;;;;17.60;6.88;;;10.40;49.00;;;;;;5007453;28;20101;-89
2021/04/05 09:47:16;;;;;;;21.02;8.10;;;10.50;48.90;;;;;;4992929;28;20057;-88
2021/04/05 09:50:10;;;;;;;16.83;7.88;;;10.50;48.40;;;;;;4948337;28;20064;-88
2021/04/05 09:53:16;;;;;;;19.85;8.00;;;10.50;48.40;;;;;;4955578;28;20074;-88
2021/04/05 09:55:47;;;;;;;19.60;8.07;;;10.50;48.30;;;;;;5003830;28;20050;-90
2021/04/05 09:58:24;;;;;;;18.05;8.25;;;10.50;48.70;;;;;;4995358;28;20026;-87
2021/04/05 10:01:02;;;;;;;19.27;8.25;;;10.60;48.90;;;;;;4994641;28;20022;-87
2021/04/05 10:03:29;;;;;;;22.15;8.18;;;10.70;48.70;;;;;;4999662;28;20026;-87
2021/04/05 10:05:57;;;;;;;18.35;7.95;;;10.80;47.80;;;;;;4985784;28;20475;-90
2021/04/05 10:08:26;;;;;;;17.42;8.18;;;10.90;47.70;;;;;;4990790;28;20462;-89
2021/04/05 10:10:54;;;;;;;18.08;8.65;;;10.90;47.40;;;;;;5012701;28;20026;-89
2021/04/05 10:13:21;;;;;;;17.63;8.30;;;10.90;47.20;;;;;;5011527;28;20057;-86
2021/04/05 10:15:51;;;;;;;18.83;7.72;;;10.90;47.60;;;;;;5006566;28;20031;-86
2021/04/05 10:18:16;;;;;;;19.90;7.75;;;10.90;47.80;;;;;;5011654;28;20414;-86
2021/04/05 10:20:47;;;;;;;16.02;9.05;;;11.00;48.20;;;;;;5012135;28;20026;-86
2021/04/05 10:23:18;;;;;;;19.00;8.57;;;11.20;47.80;;;;;;5009023;28;20035;-86
2021/04/05 10:25:45;;;;;;;23.20;8.32;;;11.20;47.60;;;;;;5003235;28;20023;-87
2021/04/05 10:28:14;;;;;;;18.15;8.48;;;11.30;47.80;;;;;;5011592;28;20489;-86
2021/04/05 10:30:41;;;;;;;18.55;8.05;;;11.40;47.50;;;;;;5012300;28;20018;-86
2021/04/05 10:33:12;;;;;;;23.45;9.73;;;11.40;47.50;;;;;;4997665;28;20030;-87
2021/04/05 10:35:42;;;;;;;15.88;7.88;;;11.40;47.20;;;;;;5014095;28;20558;-86
2021/04/05 10:38:08;;;;;;;20.88;9.68;;;11.30;47.10;;;;;;5006186;28;20041;-84
2021/04/05 10:40:34;;;;;;;20.33;7.82;;;11.30;47.30;;;;;;5029591;28;20018;-84
2021/04/05 10:43:25;;;;;;;19.83;8.15;;;11.30;47.30;;;;;;5015314;28;20039;-85
2021/04/05 10:46:09;;;;;;;20.15;9.45;;;11.40;47.70;;;;;;5021251;28;20026;-85
2021/04/05 10:49:00;;;;;;;19.48;8.20;;;11.40;47.50;;;;;;5015696;28;20082;-87
2021/04/05 10:51:29;;;;;;;16.67;7.30;;;11.40;47.60;;;;;;4998724;28;20034;-85
2021/04/05 10:54:24;;;;;;;21.95;8.23;;;11.40;48.00;;;;;;4996049;28;20369;-86
2021/04/05 10:56:53;;;;;;;18.40;8.55;;;11.40;48.00;;;;;;4988572;28;20039;-84
2021/04/05 10:59:28;;;;;;;13.70;7.72;;;11.40;48.20;;;;;;5003320;28;20073;-88
2021/04/05 11:01:58;;;;;;;20.25;8.93;;;11.40;49.00;;;;;;5012371;28;20076;-87
2021/04/05 11:04:26;;;;;;;18.92;8.65;;;11.40;48.60;;;;;;4993561;28;20038;-87
2021/04/05 11:06:53;;;;;;;20.77;9.02;;;11.30;48.50;;;;;;4994168;28;20030;-86
2021/04/05 11:09:20;;;;;;;26.90;9.48;;;11.20;48.90;;;;;;4992520;28;20081;-86
2021/04/05 11:11:52;;;;;;;24.58;9.40;;;11.10;49.40;;;;;;5010837;28;20039;-85
2021/04/05 11:14:20;;;;;;;19.88;9.30;;;11.00;49.70;;;;;;4995187;28;20034;-85
2021/04/05 11:16:58;;;;;;;22.75;9.30;;;10.90;50.20;;;;;;4994374;28;20035;-87
2021/04/05 11:20:02;;;;;;;19.40;9.50;;;10.90;50.80;;;;;;5002305;28;20030;-85
2021/04/05 11:22:29;;;;;;;22.38;10.82;;;10.80;51.00;;;;;;4985223;28;20333;-85
2021/04/05 11:25:07;;;;;;;21.55;10.10;;;10.80;51.30;;;;;;5002597;28;20035;-85
2021/04/05 11:27:40;;;;;;;23.30;9.77;;;10.70;51.50;;;;;;5011289;28;20113;-87
2021/04/05 11:30:07;;;;;;;24.35;10.57;;;10.70;51.80;;;;;;4996449;28;20506;-87
2021/04/05 11:32:36;;;;;;;21.73;9.88;;;10.60;52.40;;;;;;5012757;28;20030;-88
2021/04/05 11:35:07;;;;;;;20.92;10.00;;;10.50;52.40;;;;;;4996763;28;20027;-86
2021/04/05 11:37:35;;;;;;;21.00;9.10;;;10.50;52.60;;;;;;5004980;28;20116;-86
2021/04/05 11:40:12;;;;;;;21.95;9.63;;;10.40;52.70;;;;;;5007716;28;20108;-86
2021/04/05 11:42:43;;;;;;;21.50;9.95;;;10.40;53.00;;;;;;4995511;28;20488;-86
2021/04/05 11:45:12;;;;;;;24.52;10.13;;;10.40;53.20;;;;;;4994240;28;20030;-87
2021/04/05 11:47:44;;;;;;;25.58;10.07;;;10.30;53.10;;;;;;5032411;28;20076;-86
2021/04/05 11:50:12;;;;;;;21.00;9.02;;;10.30;53.20;;;;;;5015544;28;20073;-86
2021/04/05 11:52:55;;;;;;;23.88;10.43;;;10.30;53.20;;;;;;5010342;28;20033;-86
2021/04/05 11:55:33;;;;;;;25.10;10.30;;;10.30;53.40;;;;;;4995619;28;20022;-85
2021/04/05 11:58:03;;;;;;;18.48;9.73;;;10.30;53.40;;;;;;4997103;28;20031;-86
2021/04/05 12:00:36;;;;;;;22.98;10.05;;;10.30;53.30;;;;;;5013999;28;20037;-86
2021/04/05 12:03:12;;;;;;;25.00;10.38;;;10.40;53.50;;;;;;5006304;28;20088;-85
2021/04/05 12:05:42;;;;;;;20.90;9.32;;;10.40;53.50;;;;;;5013391;28;20120;-86
2021/04/05 12:08:25;;;;;;;24.00;11.68;;;10.50;53.50;;;;;;5008787;28;20023;-85
2021/04/05 12:11:00;;;;;;;21.63;8.52;;;10.40;53.40;;;;;;5030906;28;20025;-86
2021/04/05 12:13:47;;;;;;;24.35;9.07;;;10.40;53.40;;;;;;4998213;28;20467;-86
2021/04/05 12:16:14;;;;;;;25.88;9.80;;;10.40;53.50;;;;;;5010530;28;20085;-87
2021/04/05 12:18:41;;;;;;;24.27;10.00;;;10.40;53.60;;;;;;5010435;28;20034;-85
2021/04/05 12:21:13;;;;;;;31.95;11.57;;;10.40;53.70;;;;;;4995687;28;20369;-87
2021/04/05 12:23:42;;;;;;;19.75;8.15;;;10.30;53.70;;;;;;4995023;28;20034;-86
2021/04/05 12:26:09;;;;;;;27.80;9.23;;;10.30;53.70;;;;;;4995995;28;20534;-85
2021/04/05 12:28:40;;;;;;;22.40;9.70;;;10.30;53.80;;;;;;4995920;28;20035;-86
2021/04/05 12:31:07;;;;;;;24.48;10.93;;;10.30;53.70;;;;;;4993930;28;20035;-86
2021/04/05 12:33:34;;;;;;;24.23;10.55;;;10.30;53.50;;;;;;4993291;28;20495;-86
2021/04/05 12:36:01;;;;;;;23.75;10.13;;;10.30;53.50;;;;;;5015015;28;20037;-86
2021/04/05 12:38:37;;;;;;;24.80;10.77;;;10.30;53.60;;;;;;4998966;28;20094;-86
2021/04/05 12:41:08;;;;;;;23.50;8.90;;;10.20;53.50;;;;;;5020703;28;20045;-86
2021/04/05 12:43:37;;;;;;;24.60;9.45;;;10.20;53.50;;;;;;5013762;28;20034;-86
2021/04/05 12:46:07;;;;;;;16.75;8.90;;;10.20;53.70;;;;;;5022612;28;20030;-87
2021/04/05 12:48:36;;;;;;;19.67;8.85;;;10.20;53.50;;;;;;5008571;28;20018;-86
2021/04/05 12:51:07;;;;;;;23.10;8.75;;;10.20;53.50;;;;;;5016554;28;20560;-86
2021/04/05 12:53:35;;;;;;;22.40;8.63;;;10.30;53.20;;;;;;5022035;28;20049;-86
2021/04/05 12:56:03;;;;;;;27.80;9.38;;;10.40;53.00;;;;;;5019380;28;20030;-86
2021/04/05 12:58:31;;;;;;;19.00;8.60;;;10.40;53.00;;;;;;5000437;28;20436;-85
2021/04/05 13:00:57;;;;;;;18.80;8.27;;;10.40;53.00;;;;;;4999240;28;20042;-87
2021/04/05 13:03:25;;;;;;;22.05;8.40;;;10.40;53.00;;;;;;5013960;28;20030;-86
2021/04/05 13:06:00;;;;;;;22.13;9.50;;;10.40;53.00;;;;;;4998434;28;20037;-87
2021/04/05 13:08:39;;;;;;;21.45;8.68;;;10.30;53.00;;;;;;5016601;28;20021;-87
2021/04/05 13:11:13;;;;;;;22.65;8.95;;;10.20;52.90;;;;;;5014109;28;20022;-85
2021/04/05 13:13:48;;;;;;;19.00;10.02;;;10.20;53.20;;;;;;5016373;28;20403;-87
2021/04/05 13:16:35;;;;;;;19.35;9.65;;;10.10;53.40;;;;;;5013280;28;20066;-87
2021/04/05 13:19:07;;;;;;;22.33;8.77;;;10.00;54.00;;;;;;5023345;28;20056;-87
2021/04/05 13:21:38;;;;;;;20.73;8.57;;;9.90;54.40;;;;;;4988896;28;20047;-85
2021/04/05 13:24:08;;;;;;;19.70;8.73;;;9.90;54.80;;;;;;4990060;28;20085;-85